Time;durP1;ratioP1;P1;durP2;ratioP2;P2;SDS_P1;SDS_P2;PMS_P1;PMS_P2;Temp;Humidity;BMP_temperature;BMP_pressure;BME280_temperature;BME280_humidity;BME280_pressure;Samples;Min_cycle;Max_cycle;Signal;HPM_P1;HPM_P2
2022/12/30 00:02:35;;;;;;;11.40;2.50;;;;;;;7.51;88.05;100563.13;6003766;29;20254;-68
2022/12/30 00:05:56;;;;;;;2.33;1.57;;;;;;;7.53;87.63;100573.75;6003951;29;20238;-68
2022/12/30 00:09:16;;;;;;;1.80;1.70;;;;;;;7.52;88.20;100578.25;6010226;29;21176;-67
2022/12/30 00:34:40;;;;;;;3.47;1.83;;;;;;;7.35;87.99;100605.56;6009882;29;20582;-67
2022/12/30 00:38:00;;;;;;;5.40;2.03;;;;;;;7.34;88.88;100614.59;6014020;29;20305;-67
2022/12/30 00:45:00;;;;;;;6.93;4.40;;;;;;;7.34;88.07;100619.97;6008337;29;20253;-67
2022/12/30 00:59:18;;;;;;;5.27;2.67;;;;;;;6.95;93.49;100621.25;5977294;29;20235;-68
2022/12/30 01:02:39;;;;;;;5.57;2.10;;;;;;;7.01;94.28;100647.56;5997737;29;20242;-67
2022/12/30 01:06:06;;;;;;;3.60;2.00;;;;;;;6.96;94.67;100652.44;6012433;29;20225;-68
2022/12/30 01:09:27;;;;;;;1.90;1.70;;;;;;;7.00;93.41;100642.34;6000915;29;20240;-67
2022/12/30 01:12:48;;;;;;;7.73;1.97;;;;;;;7.01;93.28;100654.75;6016528;29;20230;-67
2022/12/30 01:16:11;;;;;;;6.10;2.17;;;;;;;7.05;92.35;100656.25;6010241;29;20262;-68
2022/12/30 01:19:32;;;;;;;4.30;2.33;;;;;;;7.10;92.04;100657.59;5996433;29;20636;-67
2022/12/30 01:22:54;;;;;;;4.03;1.87;;;;;;;7.12;90.98;100665.50;5997716;29;20235;-68
2022/12/30 01:26:15;;;;;;;3.00;2.10;;;;;;;7.15;90.93;100654.53;6009549;29;20274;-68
2022/12/30 01:29:38;;;;;;;3.67;3.33;;;;;;;7.14;89.60;100680.50;5995948;29;20230;-68
2022/12/30 01:32:59;;;;;;;3.77;2.87;;;;;;;7.17;89.03;100668.69;5994460;29;20837;-68
2022/12/30 01:36:20;;;;;;;2.30;1.67;;;;;;;7.17;88.57;100671.34;6014801;29;20529;-68
2022/12/30 01:39:42;;;;;;;5.80;2.37;;;;;;;7.12;89.58;100682.44;6001712;29;20455;-67
2022/12/30 01:43:03;;;;;;;2.30;2.10;;;;;;;7.20;88.98;100689.88;6008894;29;20423;-68
2022/12/30 01:46:27;;;;;;;4.63;2.60;;;;;;;7.20;89.05;100695.22;6005950;29;20336;-67
2022/12/30 01:49:51;;;;;;;6.60;2.13;;;;;;;7.21;88.69;100705.00;5991873;29;20243;-69
2022/12/30 01:53:14;;;;;;;3.17;1.60;;;;;;;7.28;87.13;100701.72;6011976;29;20230;-68
2022/12/30 01:56:41;;;;;;;5.30;2.70;;;;;;;7.23;87.73;100697.69;5997012;29;20250;-67
2022/12/30 02:00:04;;;;;;;2.60;2.40;;;;;;;7.19;87.75;100698.91;5997820;29;20264;-68
2022/12/30 02:03:36;;;;;;;2.80;2.60;;;;;;;7.14;87.61;100706.44;6012274;29;20226;-69
2022/12/30 02:07:06;;;;;;;2.17;1.97;;;;;;;7.16;87.53;100709.84;6010022;29;20230;-67
2022/12/30 02:10:27;;;;;;;7.40;2.80;;;;;;;7.11;87.58;100720.09;5990686;29;20234;-67
2022/12/30 02:13:49;;;;;;;4.37;2.87;;;;;;;7.13;87.84;100724.34;6003537;29;20250;-68
2022/12/30 02:17:20;;;;;;;3.60;2.30;;;;;;;7.09;87.85;100724.72;6002446;29;20246;-68
2022/12/30 02:21:13;;;;;;;3.67;2.87;;;;;;;7.10;87.72;100729.09;5998363;29;20234;-68
2022/12/30 02:25:13;;;;;;;4.03;2.27;;;;;;;7.05;88.00;100720.56;5996242;29;20322;-67
2022/12/30 02:28:59;;;;;;;6.10;2.30;;;;;;;7.01;88.73;100727.09;6006671;29;20238;-67
2022/12/30 02:32:27;;;;;;;3.50;2.47;;;;;;;6.99;88.47;100723.69;5995040;29;20689;-67
2022/12/30 02:35:57;;;;;;;2.90;2.57;;;;;;;6.97;88.37;100718.44;6004792;29;20899;-67
2022/12/30 02:39:26;;;;;;;2.83;1.70;;;;;;;6.94;88.95;100731.25;5992071;29;20814;-67
2022/12/30 02:46:37;;;;;;;8.87;2.40;;;;;;;6.97;88.20;100733.66;6004249;29;20242;-67
2022/12/30 02:53:42;;;;;;;5.97;3.03;;;;;;;6.99;88.55;100747.81;6000150;29;20266;-67
2022/12/30 02:57:22;;;;;;;3.73;2.27;;;;;;;7.00;88.48;100749.53;6005734;29;20421;-68
2022/12/30 03:04:41;;;;;;;6.43;3.77;;;;;;;7.03;88.46;100752.00;5995385;29;20937;-67
2022/12/30 03:08:13;;;;;;;2.67;2.47;;;;;;;7.00;88.48;100746.84;6011282;29;20234;-68
2022/12/30 03:11:45;;;;;;;3.37;2.13;;;;;;;7.01;88.90;100760.13;6011213;29;20659;-68
2022/12/30 03:15:14;;;;;;;3.80;3.27;;;;;;;7.04;88.33;100762.59;5998897;29;20226;-68
2022/12/30 03:18:35;;;;;;;2.63;1.63;;;;;;;7.09;88.24;100764.91;5993493;29;20262;-68
2022/12/30 03:21:57;;;;;;;7.17;2.87;;;;;;;7.08;88.65;100772.09;6012304;29;20254;-68
2022/12/30 03:29:01;;;;;;;3.23;2.93;;;;;;;7.17;88.06;100781.25;5993974;29;20239;-68
2022/12/30 03:32:23;;;;;;;3.73;2.40;;;;;;;7.18;87.39;100783.81;5998116;29;20231;-68
2022/12/30 03:35:50;;;;;;;4.67;2.20;;;;;;;7.22;87.01;100793.34;6006194;29;20242;-67
2022/12/30 03:39:15;;;;;;;5.67;2.20;;;;;;;7.23;87.11;100786.16;5985728;29;20243;-67
2022/12/30 03:42:37;;;;;;;4.80;1.80;;;;;;;7.20;87.79;100800.63;6001948;29;20224;-68
2022/12/30 03:45:58;;;;;;;4.77;2.03;;;;;;;7.21;87.12;100797.00;6005785;29;20233;-67
2022/12/30 03:49:20;;;;;;;1.77;1.53;;;;;;;7.24;87.36;100803.94;5995917;29;20317;-68
2022/12/30 03:52:40;;;;;;;5.70;2.53;;;;;;;7.27;86.80;100811.75;6012485;29;20231;-68
2022/12/30 03:56:01;;;;;;;2.10;1.93;;;;;;;7.28;86.79;100818.81;5969529;29;1067379;-68
2022/12/30 03:59:24;;;;;;;3.23;2.07;;;;;;;7.31;87.09;100825.78;6002305;29;20572;-68
2022/12/30 04:02:45;;;;;;;8.53;3.13;;;;;;;7.33;86.22;100830.06;6016793;29;20379;-68
2022/12/30 04:06:06;;;;;;;2.90;2.60;;;;;;;7.32;86.23;100835.53;6007267;29;20238;-68
2022/12/30 04:09:27;;;;;;;2.57;1.57;;;;;;;7.32;86.46;100823.00;5993302;29;20675;-68
2022/12/30 04:12:47;;;;;;;7.17;2.23;;;;;;;7.33;86.24;100834.56;6010754;29;20241;-68
2022/12/30 04:16:10;;;;;;;4.23;1.57;;;;;;;7.34;85.84;100839.81;6012167;29;20229;-68
2022/12/30 04:19:30;;;;;;;5.80;2.10;;;;;;;7.35;86.36;100833.47;6004545;29;20238;-68
2022/12/30 04:22:51;;;;;;;2.73;2.20;;;;;;;7.36;86.12;100851.28;6018601;29;20451;-67
2022/12/30 04:26:13;;;;;;;6.83;2.40;;;;;;;7.39;86.21;100850.19;6012642;29;20593;-68
2022/12/30 04:29:35;;;;;;;10.93;2.53;;;;;;;7.38;85.89;100861.88;6002334;29;20618;-68
2022/12/30 04:32:57;;;;;;;2.70;2.33;;;;;;;7.41;85.72;100858.97;6013390;29;20222;-68
2022/12/30 04:36:18;;;;;;;5.20;4.67;;;;;;;7.42;85.23;100858.00;6013666;29;20242;-68
2022/12/30 04:39:39;;;;;;;3.77;2.77;;;;;;;7.44;85.52;100869.47;6003582;29;20257;-68
2022/12/30 04:43:00;;;;;;;7.40;3.87;;;;;;;7.43;84.38;100871.28;6018311;29;20234;-69
2022/12/30 04:46:20;;;;;;;8.77;2.30;;;;;;;7.46;84.88;100881.78;6015120;29;20234;-69
2022/12/30 04:49:43;;;;;;;5.57;2.00;;;;;;;7.47;84.92;100878.13;5997949;29;20246;-68
2022/12/30 04:53:03;;;;;;;4.43;2.27;;;;;;;7.45;84.26;100874.69;6009904;29;20238;-67
2022/12/30 04:56:24;;;;;;;3.47;2.60;;;;;;;7.46;84.47;100880.94;6012634;29;20316;-68
2022/12/30 04:59:45;;;;;;;3.00;2.30;;;;;;;7.46;83.71;100879.09;6000780;29;20266;-68
2022/12/30 05:03:06;;;;;;;3.47;2.40;;;;;;;7.45;83.57;100881.91;5993956;29;20239;-68
2022/12/30 05:06:28;;;;;;;2.33;1.83;;;;;;;7.44;83.52;100894.47;6013119;29;20794;-67
2022/12/30 05:09:49;;;;;;;3.83;1.97;;;;;;;7.45;84.18;100900.69;6006484;29;20254;-67
2022/12/30 05:13:10;;;;;;;4.13;3.27;;;;;;;7.45;83.80;100896.16;6014777;29;20250;-68
2022/12/30 05:16:31;;;;;;;5.93;2.90;;;;;;;7.42;83.33;100891.03;6013708;29;20267;-67
2022/12/30 05:19:52;;;;;;;13.00;2.80;;;;;;;7.37;83.52;100893.19;6003258;29;20324;-68
2022/12/30 05:26:49;;;;;;;4.77;2.77;;;;;;;7.37;83.38;100895.03;6000998;29;20338;-67
2022/12/30 05:30:11;;;;;;;3.77;2.13;;;;;;;7.33;83.41;100893.53;6004170;29;20238;-68
2022/12/30 05:33:32;;;;;;;6.30;3.97;;;;;;;7.32;82.69;100894.53;6006327;29;20235;-67
2022/12/30 05:36:53;;;;;;;4.10;2.23;;;;;;;7.27;83.12;100902.91;6010722;29;20230;-68
2022/12/30 05:40:15;;;;;;;5.57;3.60;;;;;;;7.25;83.17;100902.16;6000461;29;20313;-68
2022/12/30 05:43:37;;;;;;;4.73;2.73;;;;;;;7.32;82.53;100897.22;6011038;29;21725;-68
2022/12/30 05:46:58;;;;;;;10.60;4.40;;;;;;;7.28;82.99;100908.16;6001870;29;20403;-68
2022/12/30 05:50:18;;;;;;;3.07;2.33;;;;;;;7.25;83.57;100908.41;5990719;29;20234;-68
2022/12/30 05:53:40;;;;;;;3.20;1.97;;;;;;;7.21;83.49;100909.59;6010242;29;20243;-67
2022/12/30 05:57:03;;;;;;;4.90;2.30;;;;;;;7.19;83.77;100914.22;5992426;29;20592;-67
2022/12/30 06:00:23;;;;;;;3.53;3.23;;;;;;;7.11;85.11;100921.94;5990780;29;20242;-67
2022/12/30 06:03:44;;;;;;;2.97;2.63;;;;;;;7.04;85.44;100920.72;6000455;29;20317;-68
2022/12/30 06:07:05;;;;;;;7.23;4.03;;;;;;;7.02;85.76;100929.81;6005430;29;20262;-67
2022/12/30 06:10:26;;;;;;;8.03;2.40;;;;;;;6.98;85.57;100925.66;5996081;29;20237;-68
2022/12/30 06:13:48;;;;;;;6.60;2.30;;;;;;;6.93;85.82;100930.47;6010960;29;20243;-67
2022/12/30 06:17:09;;;;;;;5.17;4.17;;;;;;;6.96;85.96;100931.13;5984968;29;20333;-67
2022/12/30 06:20:30;;;;;;;4.50;2.33;;;;;;;6.86;86.45;100940.78;5995740;29;20237;-67
2022/12/30 06:23:51;;;;;;;9.77;2.80;;;;;;;6.82;86.92;100941.13;6007715;29;20238;-66
2022/12/30 06:27:12;;;;;;;11.17;3.37;;;;;;;6.83;86.67;100950.88;6001181;29;20289;-68
2022/12/30 06:30:34;;;;;;;8.17;2.53;;;;;;;6.73;86.87;100942.66;6005902;29;20667;-68
2022/12/30 06:33:55;;;;;;;2.93;2.63;;;;;;;6.68;87.09;100952.84;5989261;29;20231;-68
2022/12/30 06:37:16;;;;;;;3.23;2.90;;;;;;;6.63;87.71;100932.72;5997701;29;20235;-67
2022/12/30 06:40:37;;;;;;;7.60;2.80;;;;;;;6.55;87.98;100953.84;5991123;29;20242;-67
2022/12/30 06:43:58;;;;;;;6.20;3.03;;;;;;;6.46;88.45;100941.94;5995450;29;20239;-67
2022/12/30 06:47:20;;;;;;;5.33;2.20;;;;;;;6.40;88.51;100945.88;6000287;29;20254;-67
2022/12/30 06:50:41;;;;;;;4.23;3.07;;;;;;;6.36;88.86;100947.06;5993818;29;20234;-68
2022/12/30 06:54:01;;;;;;;10.43;3.37;;;;;;;6.34;88.71;100957.03;5996522;29;22672;-67
2022/12/30 06:57:22;;;;;;;2.67;1.90;;;;;;;6.25;89.08;100957.69;5974525;29;20239;-67
2022/12/30 07:00:43;;;;;;;5.27;2.60;;;;;;;6.27;89.05;100960.25;5996990;29;20625;-67
2022/12/30 07:04:06;;;;;;;6.70;2.27;;;;;;;6.27;88.99;100949.56;6008233;29;20329;-66
2022/12/30 07:07:27;;;;;;;4.73;2.20;;;;;;;6.18;89.51;100950.19;6005097;29;20293;-67
2022/12/30 07:10:48;;;;;;;3.50;2.87;;;;;;;6.16;89.64;100970.84;6011812;29;20309;-67
2022/12/30 07:14:09;;;;;;;7.47;2.67;;;;;;;6.18;89.67;100971.59;6004156;29;20462;-66
2022/12/30 07:17:30;;;;;;;3.40;1.87;;;;;;;6.14;89.76;100975.44;6005498;29;20247;-67
2022/12/30 07:20:54;;;;;;;4.67;2.07;;;;;;;6.17;89.57;100981.47;5995953;29;20246;-66
2022/12/30 07:24:15;;;;;;;6.00;2.30;;;;;;;6.12;89.64;100983.59;5992651;29;20231;-67
2022/12/30 07:27:37;;;;;;;2.40;1.97;;;;;;;6.13;89.49;100976.44;6013964;29;20234;-67
2022/12/30 07:30:57;;;;;;;7.13;3.17;;;;;;;6.12;89.86;100985.41;6003258;29;20229;-67
2022/12/30 07:34:18;;;;;;;7.20;2.77;;;;;;;6.09;90.14;100982.94;5990562;29;21369;-67
2022/12/30 07:37:41;;;;;;;9.57;3.07;;;;;;;6.11;90.21;100991.72;6007415;29;20238;-66
2022/12/30 07:41:02;;;;;;;7.60;3.37;;;;;;;6.12;90.17;100991.63;6014931;29;20238;-67
2022/12/30 07:44:22;;;;;;;4.53;2.57;;;;;;;6.05;90.57;100982.28;6000509;29;20235;-68
2022/12/30 07:47:43;;;;;;;2.83;1.70;;;;;;;6.07;90.39;100982.19;5993811;29;20250;-68
2022/12/30 07:51:08;;;;;;;9.73;2.60;;;;;;;6.07;90.38;100982.19;6007425;29;20237;-66
2022/12/30 07:54:30;;;;;;;5.03;3.00;;;;;;;6.06;90.69;100986.69;6001116;29;20265;-66
2022/12/30 07:57:51;;;;;;;6.23;3.50;;;;;;;6.13;90.45;100993.31;6011001;29;21077;-66
2022/12/30 08:01:13;;;;;;;2.13;1.80;;;;;;;6.16;90.37;101006.50;5994374;29;20242;-66
2022/12/30 08:04:34;;;;;;;3.73;2.23;;;;;;;6.19;90.15;101002.75;5997599;29;20237;-66
2022/12/30 08:07:55;;;;;;;3.70;2.00;;;;;;;6.16;90.26;101009.19;6014509;29;20238;-67
2022/12/30 08:11:17;;;;;;;9.33;2.53;;;;;;;6.17;90.33;100997.53;6006030;29;21920;-66
2022/12/30 08:14:38;;;;;;;11.27;3.27;;;;;;;6.14;90.17;101000.41;5996166;29;20253;-66
2022/12/30 08:17:59;;;;;;;4.47;3.40;;;;;;;6.21;90.04;101000.84;6010029;29;20238;-65
2022/12/30 08:21:20;;;;;;;3.43;2.87;;;;;;;6.09;90.13;101007.03;5999308;29;20241;-66
2022/12/30 08:24:40;;;;;;;5.97;3.83;;;;;;;6.19;89.97;100997.41;5990081;29;20242;-68
2022/12/30 08:28:03;;;;;;;4.40;2.57;;;;;;;6.28;89.80;101000.28;6012868;29;20247;-66
2022/12/30 08:31:26;;;;;;;5.97;2.70;;;;;;;6.20;90.04;101007.13;6001099;29;21974;-67
2022/12/30 08:34:47;;;;;;;2.33;1.80;;;;;;;6.35;89.08;100995.38;5994601;29;20234;-67
2022/12/30 08:38:08;;;;;;;5.73;2.30;;;;;;;7.37;85.69;100994.25;6012907;29;20230;-66
2022/12/30 08:41:31;;;;;;;4.60;2.73;;;;;;;8.03;81.66;100995.41;6009508;29;20239;-67
2022/12/30 08:44:53;;;;;;;7.27;2.90;;;;;;;8.32;80.66;100998.59;5996618;29;20660;-67
2022/12/30 08:48:14;;;;;;;3.53;3.23;;;;;;;10.03;73.43;100993.47;6012090;29;20629;-67
2022/12/30 08:51:36;;;;;;;6.33;2.30;;;;;;;10.50;72.20;100994.81;6022525;29;20330;-67
2022/12/30 08:54:56;;;;;;;3.50;2.43;;;;;;;8.76;76.54;101005.84;6016053;29;20242;-66
2022/12/30 08:58:17;;;;;;;4.03;2.57;;;;;;;10.74;69.86;100997.22;6020193;29;20242;-67
2022/12/30 09:01:40;;;;;;;3.30;1.97;;;;;;;10.83;68.97;101005.34;6008420;29;20480;-67
2022/12/30 09:05:01;;;;;;;6.03;1.97;;;;;;;11.18;66.81;101003.06;6014926;29;20230;-67
2022/12/30 09:08:22;;;;;;;3.47;3.10;;;;;;;12.21;64.58;101011.63;6015500;29;20246;-67
2022/12/30 09:11:45;;;;;;;6.10;1.97;;;;;;;11.79;64.36;101013.75;6019689;29;20238;-68
2022/12/30 09:15:07;;;;;;;4.73;2.07;;;;;;;10.56;68.52;101013.13;6005049;29;21056;-69
2022/12/30 09:18:29;;;;;;;2.63;1.67;;;;;;;10.70;66.49;101026.25;6012770;29;20242;-68
2022/12/30 09:21:51;;;;;;;9.77;2.80;;;;;;;10.50;68.90;101013.66;6008987;29;20531;-68
2022/12/30 09:25:11;;;;;;;2.77;1.67;;;;;;;10.77;68.74;101019.38;6012080;29;20238;-69
2022/12/30 09:28:32;;;;;;;6.47;3.37;;;;;;;10.96;67.57;101014.06;6008890;29;20234;-67
2022/12/30 09:31:53;;;;;;;3.77;1.90;;;;;;;11.15;65.72;101007.91;6008084;29;20243;-67
2022/12/30 09:35:16;;;;;;;4.00;3.00;;;;;;;9.88;70.89;101005.53;6002158;29;20234;-67
2022/12/30 09:38:36;;;;;;;3.63;2.27;;;;;;;9.89;72.16;101006.38;6019460;29;20251;-68
2022/12/30 09:45:47;;;;;;;2.63;1.90;;;;;;;11.36;66.04;100997.03;6011274;29;20234;-67
2022/12/30 09:49:26;;;;;;;5.43;2.10;;;;;;;11.12;66.85;100984.72;6012387;29;20242;-69
2022/12/30 09:52:52;;;;;;;2.10;1.57;;;;;;;10.98;67.08;100986.94;6020961;29;20227;-68
2022/12/30 09:56:15;;;;;;;3.27;2.23;;;;;;;9.85;70.77;100988.75;6017865;29;20233;-68
2022/12/30 09:59:36;;;;;;;4.47;2.30;;;;;;;9.97;70.10;100963.50;6015265;29;20332;-68
2022/12/30 10:03:05;;;;;;;4.53;2.63;;;;;;;9.70;71.78;100971.22;6020055;29;20329;-67
2022/12/30 10:06:33;;;;;;;8.53;2.93;;;;;;;10.61;68.49;100970.47;6003587;29;20233;-68
2022/12/30 10:10:00;;;;;;;3.80;2.57;;;;;;;10.50;68.07;100958.91;5886166;29;20238;-68
2022/12/30 10:13:30;;;;;;;8.40;4.20;;;;;;;9.92;70.48;100938.78;6013445;29;20238;-68
2022/12/30 10:17:02;;;;;;;5.63;2.20;;;;;;;10.05;71.22;100944.84;6004017;29;20858;-67
2022/12/30 10:20:41;;;;;;;3.17;2.30;;;;;;;10.27;69.18;100940.22;6017853;29;20647;-68
2022/12/30 10:24:16;;;;;;;4.20;2.63;;;;;;;10.79;67.26;100923.00;5998423;29;20235;-67
2022/12/30 10:27:45;;;;;;;7.47;4.33;;;;;;;10.75;67.07;100923.41;5975869;29;21139;-68
2022/12/30 10:31:09;;;;;;;9.00;3.10;;;;;;;10.69;68.84;100924.81;5991861;29;20238;-67
2022/12/30 10:34:33;;;;;;;6.80;2.00;;;;;;;10.21;69.37;100918.31;6005452;29;20896;-68
2022/12/30 10:38:00;;;;;;;3.80;2.07;;;;;;;10.88;67.39;100911.41;6018987;29;20238;-68
2022/12/30 10:41:33;;;;;;;1.67;1.23;;;;;;;10.63;68.97;100901.09;6005195;29;20366;-68
2022/12/30 10:45:13;;;;;;;2.67;2.20;;;;;;;11.43;64.98;100898.31;6009997;29;20260;-69
2022/12/30 10:48:59;;;;;;;3.97;2.10;;;;;;;11.26;65.89;100894.47;6021571;29;20238;-69
2022/12/30 10:52:20;;;;;;;11.90;2.80;;;;;;;10.95;65.48;100893.66;6018605;29;20234;-68
2022/12/30 10:55:47;;;;;;;3.67;2.53;;;;;;;10.03;69.67;100876.81;6015812;29;20328;-66
2022/12/30 10:59:13;;;;;;;5.83;3.17;;;;;;;10.02;69.14;100873.25;5997408;29;20261;-67
2022/12/30 11:02:38;;;;;;;7.77;4.00;;;;;;;10.54;67.46;100871.38;6014722;29;20689;-68
2022/12/30 11:06:14;;;;;;;3.23;2.00;;;;;;;10.43;68.06;100850.78;6022494;29;20261;-68
2022/12/30 11:09:36;;;;;;;2.30;1.47;;;;;;;9.90;70.10;100860.84;6007631;29;20258;-68
2022/12/30 11:16:42;;;;;;;5.20;1.93;;;;;;;9.53;71.55;100852.34;5998989;29;20230;-67
2022/12/30 11:20:20;;;;;;;4.73;2.67;;;;;;;9.21;72.19;100848.84;6004788;29;20230;-67
2022/12/30 11:23:42;;;;;;;2.07;1.87;;;;;;;9.12;73.23;100846.06;6026481;29;20548;-69
2022/12/30 11:27:04;;;;;;;6.10;2.93;;;;;;;8.90;73.13;100838.06;6009329;29;20236;-68
2022/12/30 11:30:30;;;;;;;4.30;2.67;;;;;;;8.88;73.31;100829.28;6008523;29;20241;-69
2022/12/30 11:33:54;;;;;;;4.50;2.60;;;;;;;9.00;73.47;100815.69;6016914;29;20243;-67
2022/12/30 11:37:31;;;;;;;12.13;2.80;;;;;;;9.13;71.90;100810.13;6011826;29;20240;-67
2022/12/30 11:40:52;;;;;;;3.50;1.60;;;;;;;9.13;72.86;100794.84;6019431;29;20254;-67
2022/12/30 11:44:19;;;;;;;3.93;3.23;;;;;;;9.06;72.98;100801.72;6014089;29;20629;-66
2022/12/30 11:47:44;;;;;;;4.13;2.97;;;;;;;8.97;73.13;100786.34;5995590;29;20282;-68
2022/12/30 11:51:17;;;;;;;3.17;1.70;;;;;;;8.96;72.62;100779.28;6003799;29;20250;-67
2022/12/30 11:54:46;;;;;;;2.00;1.00;;;;;;;8.64;73.61;100760.44;5999305;29;20242;-67
2022/12/30 11:58:13;;;;;;;4.00;1.23;;;;;;;8.52;74.37;100764.16;6008879;29;20238;-65
2022/12/30 12:01:42;;;;;;;2.80;1.40;;;;;;;8.62;74.73;100759.72;6000775;29;20250;-67
2022/12/30 12:05:25;;;;;;;3.27;1.63;;;;;;;8.47;74.92;100750.22;6013067;29;20237;-68
2022/12/30 12:08:54;;;;;;;8.23;2.33;;;;;;;8.43;74.93;100737.16;6022513;29;20226;-67
2022/12/30 12:12:20;;;;;;;2.50;2.30;;;;;;;8.57;74.22;100718.09;5990542;29;20231;-68
2022/12/30 12:15:44;;;;;;;4.33;2.53;;;;;;;8.60;74.59;100720.50;5991747;29;20229;-68
2022/12/30 12:19:17;;;;;;;2.17;1.47;;;;;;;8.95;73.34;100713.03;6014381;29;20254;-67
2022/12/30 12:22:58;;;;;;;2.10;1.37;;;;;;;8.71;73.82;100693.63;6015334;29;20242;-67
2022/12/30 12:26:22;;;;;;;1.83;1.07;;;;;;;8.74;73.39;100704.13;6013955;29;20234;-68
2022/12/30 12:29:45;;;;;;;2.30;1.40;;;;;;;8.80;73.50;100691.00;5977532;29;20242;-68
2022/12/30 12:33:16;;;;;;;5.47;1.97;;;;;;;8.67;73.99;100678.72;5992276;29;21920;-67
2022/12/30 12:36:48;;;;;;;2.20;1.00;;;;;;;8.94;72.57;100688.97;5995947;29;20237;-67
2022/12/30 12:40:26;;;;;;;5.93;1.53;;;;;;;8.98;73.38;100682.34;6007947;29;20628;-67
2022/12/30 12:43:58;;;;;;;8.93;1.63;;;;;;;9.31;71.81;100676.75;6020125;29;20341;-67
2022/12/30 12:47:38;;;;;;;2.17;1.57;;;;;;;9.54;71.25;100665.72;5996255;29;20239;-67
2022/12/30 12:51:14;;;;;;;1.23;1.13;;;;;;;10.03;69.22;100654.13;6011142;29;20226;-67
2022/12/30 12:55:16;;;;;;;5.70;2.60;;;;;;;10.13;67.79;100652.34;5997105;29;20232;-68
2022/12/30 12:58:45;;;;;;;2.37;1.27;;;;;;;9.83;68.68;100651.50;5996642;29;20235;-68
2022/12/30 13:02:34;;;;;;;3.77;1.57;;;;;;;9.76;69.37;100645.84;6003517;29;20676;-67
2022/12/30 13:06:02;;;;;;;1.70;1.30;;;;;;;9.29;70.87;100641.06;6006735;29;20648;-67
2022/12/30 13:09:59;;;;;;;5.37;2.37;;;;;;;9.16;71.36;100630.53;6007921;29;20235;-67
2022/12/30 13:13:26;;;;;;;8.03;2.00;;;;;;;8.72;72.33;100622.75;6022326;29;20520;-67
2022/12/30 13:16:51;;;;;;;1.17;1.03;;;;;;;8.63;73.08;100612.81;6008292;29;20261;-66
2022/12/30 13:20:17;;;;;;;3.37;1.40;;;;;;;8.61;72.67;100591.44;6000219;29;20545;-67
2022/12/30 13:23:45;;;;;;;1.50;1.20;;;;;;;8.69;72.62;100577.34;6020053;29;20249;-67
2022/12/30 13:27:14;;;;;;;4.10;1.57;;;;;;;8.75;72.98;100579.50;6006498;29;20249;-66
2022/12/30 13:30:43;;;;;;;1.43;1.33;;;;;;;8.57;73.24;100573.03;5996001;29;20276;-66
2022/12/30 13:34:18;;;;;;;4.83;1.20;;;;;;;8.43;75.00;100576.00;6003957;29;20265;-68
2022/12/30 13:37:44;;;;;;;1.80;1.07;;;;;;;8.27;74.92;100560.34;6013377;29;20321;-68
2022/12/30 13:41:25;;;;;;;2.17;1.70;;;;;;;8.21;74.40;100558.16;6000311;29;20914;-67
2022/12/30 13:44:48;;;;;;;2.20;1.30;;;;;;;8.15;75.47;100556.00;6005365;29;20234;-68
2022/12/30 13:48:14;;;;;;;1.93;1.10;;;;;;;8.15;75.45;100544.38;6019825;29;20517;-68
2022/12/30 13:51:35;;;;;;;1.97;1.77;;;;;;;8.14;76.04;100542.66;6016908;29;20233;-68
2022/12/30 13:54:59;;;;;;;4.47;2.00;;;;;;;8.08;75.30;100528.81;6001679;29;20241;-67
2022/12/30 13:58:29;;;;;;;1.40;1.30;;;;;;;8.10;75.59;100539.41;6008630;29;20224;-67
2022/12/30 14:01:51;;;;;;;1.83;1.33;;;;;;;7.97;76.21;100525.28;6004849;29;20242;-68
2022/12/30 14:05:31;;;;;;;1.80;1.67;;;;;;;7.87;76.78;100516.31;5993614;29;20564;-68
2022/12/30 14:09:13;;;;;;;2.20;1.60;;;;;;;7.92;77.00;100508.75;6011537;29;20247;-67
2022/12/30 14:12:40;;;;;;;3.80;1.40;;;;;;;7.94;76.83;100488.00;6016576;29;20243;-67
2022/12/30 14:16:05;;;;;;;1.30;1.20;;;;;;;7.90;77.19;100484.72;6008435;29;21180;-67
2022/12/30 14:19:53;;;;;;;2.50;1.63;;;;;;;7.93;77.13;100486.28;5994127;29;20822;-67
2022/12/30 14:23:36;;;;;;;1.17;0.93;;;;;;;7.84;76.59;100487.91;6025452;29;20265;-67
2022/12/30 14:26:57;;;;;;;4.07;1.73;;;;;;;7.83;77.94;100483.53;6013025;29;20618;-67
2022/12/30 14:30:26;;;;;;;3.43;1.27;;;;;;;7.86;77.69;100464.47;5992897;29;20532;-67
2022/12/30 14:33:49;;;;;;;2.97;2.07;;;;;;;7.88;77.92;100459.00;6012586;29;20229;-66
2022/12/30 14:37:22;;;;;;;2.83;1.40;;;;;;;7.85;77.24;100454.72;6013874;29;20231;-67
2022/12/30 14:40:56;;;;;;;2.90;2.70;;;;;;;7.79;77.56;100436.47;6013112;29;20238;-67
2022/12/30 14:44:23;;;;;;;1.70;1.20;;;;;;;7.82;77.90;100441.56;6022583;29;20243;-66
2022/12/30 14:47:46;;;;;;;4.00;1.93;;;;;;;7.76;77.86;100417.09;6002731;29;20230;-67
2022/12/30 14:51:09;;;;;;;2.47;1.40;;;;;;;7.87;77.67;100408.97;6023390;29;20520;-68
2022/12/30 14:54:35;;;;;;;5.03;1.63;;;;;;;7.84;77.52;100401.22;6004574;29;20246;-66
2022/12/30 14:58:01;;;;;;;2.53;1.70;;;;;;;7.91;78.05;100397.84;6029827;29;20628;-65
2022/12/30 15:01:22;;;;;;;2.73;1.10;;;;;;;7.81;77.88;100390.72;6022569;29;20312;-66
2022/12/30 15:04:44;;;;;;;2.30;1.20;;;;;;;7.77;78.34;100375.88;5999174;29;20463;-66
2022/12/30 15:08:09;;;;;;;2.27;1.00;;;;;;;7.81;78.11;100369.25;6029678;29;20691;-67
2022/12/30 15:11:30;;;;;;;4.73;1.17;;;;;;;7.81;78.28;100363.88;6010388;29;20230;-67
2022/12/30 15:14:53;;;;;;;2.57;1.33;;;;;;;7.81;78.43;100351.34;6019092;29;20233;-66
2022/12/30 15:18:29;;;;;;;3.97;2.20;;;;;;;7.81;77.78;100332.56;6027956;29;20238;-67
2022/12/30 15:21:49;;;;;;;6.00;2.90;;;;;;;7.76;77.72;100326.72;6036112;29;20317;-67
2022/12/30 15:25:17;;;;;;;2.07;1.70;;;;;;;7.85;77.29;100331.31;6009981;29;20294;-67
2022/12/30 15:28:40;;;;;;;1.20;1.00;;;;;;;7.84;77.93;100310.81;6022846;29;20234;-67
2022/12/30 15:32:02;;;;;;;5.53;1.20;;;;;;;7.89;77.62;100316.63;6021049;29;20531;-67
2022/12/30 15:35:29;;;;;;;2.87;1.23;;;;;;;7.90;77.81;100306.75;6020065;29;20236;-67
2022/12/30 15:38:50;;;;;;;2.83;1.20;;;;;;;7.91;77.31;100295.88;6026500;29;20256;-67
2022/12/30 15:42:17;;;;;;;3.60;1.40;;;;;;;7.90;77.21;100274.56;6028357;29;20254;-67
2022/12/30 15:45:40;;;;;;;5.13;2.67;;;;;;;7.95;76.70;100273.16;6017675;29;20230;-67
2022/12/30 15:49:12;;;;;;;4.93;1.70;;;;;;;7.96;77.02;100272.19;6024575;29;20325;-66
2022/12/30 15:52:39;;;;;;;6.53;1.90;;;;;;;7.97;77.09;100247.03;6021203;29;20246;-67
2022/12/30 15:56:02;;;;;;;2.00;1.43;;;;;;;7.98;77.46;100256.81;6016643;29;20352;-68
2022/12/30 15:59:30;;;;;;;9.60;2.20;;;;;;;8.00;77.69;100256.66;6015631;29;20231;-68
2022/12/30 16:02:55;;;;;;;2.20;1.10;;;;;;;8.04;77.55;100244.66;5998277;29;20660;-66
2022/12/30 16:06:16;;;;;;;1.83;0.83;;;;;;;8.05;76.47;100243.69;6004465;29;20227;-67
2022/12/30 16:09:41;;;;;;;3.63;1.17;;;;;;;8.02;76.97;100231.38;6009123;29;20234;-66
2022/12/30 16:13:02;;;;;;;2.77;1.27;;;;;;;8.06;77.13;100219.38;6026455;29;20629;-67
2022/12/30 16:16:32;;;;;;;3.10;1.40;;;;;;;8.08;77.27;100195.94;6005038;29;20515;-67
2022/12/30 16:19:53;;;;;;;3.40;0.87;;;;;;;8.15;76.46;100195.41;6011296;29;20275;-66
2022/12/30 16:23:17;;;;;;;1.40;1.30;;;;;;;8.20;75.91;100185.09;6011964;29;20247;-67
2022/12/30 16:26:39;;;;;;;5.53;1.10;;;;;;;8.26;76.20;100198.00;6007109;29;20238;-68
2022/12/30 16:30:15;;;;;;;1.83;1.20;;;;;;;8.27;76.32;100172.84;6000729;29;20246;-67
2022/12/30 16:33:38;;;;;;;2.57;2.00;;;;;;;8.28;75.14;100196.84;6020872;29;20678;-68
2022/12/30 16:36:59;;;;;;;2.83;1.40;;;;;;;8.33;75.35;100151.66;6018086;29;20254;-67
2022/12/30 16:40:22;;;;;;;1.93;0.90;;;;;;;8.38;74.83;100149.41;6003367;29;20289;-66
2022/12/30 16:43:43;;;;;;;2.70;1.77;;;;;;;8.45;74.71;100144.31;6005767;29;20254;-66
2022/12/30 16:47:04;;;;;;;3.93;1.70;;;;;;;8.49;74.20;100137.69;5996584;29;20224;-67
2022/12/30 16:50:26;;;;;;;2.63;1.93;;;;;;;8.47;74.08;100115.50;6014690;29;20238;-67
2022/12/30 16:53:47;;;;;;;2.00;1.90;;;;;;;8.48;74.52;100104.59;6024412;29;20234;-67
2022/12/30 16:57:13;;;;;;;2.00;1.40;;;;;;;8.54;74.10;100109.41;6019033;29;20226;-67
2022/12/30 17:00:34;;;;;;;2.33;1.13;;;;;;;8.55;73.29;100103.03;6017468;29;20532;-67
2022/12/30 17:03:55;;;;;;;4.30;1.47;;;;;;;8.60;74.40;100089.16;6012697;29;20691;-68
2022/12/30 17:07:20;;;;;;;2.47;1.10;;;;;;;8.57;73.50;100071.50;6008278;29;20238;-67